createdAt,value
2018-08-04T00:00:43.114Z,45.47
2018-08-04T00:03:12.126Z,45.94
2018-08-04T00:05:41.359Z,45.93
2018-08-04T00:08:10.501Z,46.68
2018-08-04T00:10:39.604Z,47.26
2018-08-04T00:13:08.985Z,47.26
2018-08-04T00:15:38.900Z,47.34
2018-08-04T00:18:08.355Z,48.07
2018-08-04T00:20:38.028Z,48.73
2018-08-04T00:23:07.661Z,48.00
2018-08-04T00:25:37.049Z,48.08
2018-08-04T00:28:06.473Z,48.15
2018-08-04T00:30:36.154Z,48.84
2018-08-04T00:33:05.296Z,48.61
2018-08-04T00:35:34.905Z,48.97
2018-08-04T00:38:04.934Z,49.27
2018-08-04T00:40:34.227Z,48.92
2018-08-04T00:43:03.546Z,49.61
2018-08-04T00:45:32.610Z,48.93
2018-08-04T00:48:02.234Z,48.45
2018-08-04T00:50:31.587Z,50.05
2018-08-04T00:53:01.063Z,49.30
2018-08-04T00:55:30.474Z,50.21
2018-08-04T00:57:59.742Z,49.57
2018-08-04T01:00:29.138Z,49.21
2018-08-04T01:02:58.300Z,50.44
2018-08-04T01:05:27.642Z,49.26
2018-08-04T01:07:56.896Z,50.55
2018-08-04T01:10:26.216Z,50.62
2018-08-04T01:12:55.481Z,51.06
2018-08-04T01:15:24.888Z,50.49
2018-08-04T01:17:54.074Z,50.76
2018-08-04T01:20:23.241Z,51.88
2018-08-04T01:22:52.639Z,52.11
2018-08-04T01:25:21.889Z,51.79
2018-08-04T01:27:51.000Z,52.73
2018-08-04T01:30:20.474Z,52.09
2018-08-04T01:32:50.042Z,53.04
2018-08-04T01:35:19.404Z,52.47
2018-08-04T01:37:48.509Z,53.09
2018-08-04T01:40:17.790Z,52.72
2018-08-04T01:42:46.993Z,53.50
2018-08-04T01:45:16.630Z,53.83
2018-08-04T01:47:45.808Z,53.26
2018-08-04T01:50:15.000Z,53.44
2018-08-04T01:52:44.467Z,54.49
2018-08-04T01:55:13.851Z,54.10
2018-08-04T01:57:43.612Z,54.31
2018-08-04T02:00:12.830Z,55.38
2018-08-04T02:02:42.685Z,55.45
2018-08-04T02:05:11.513Z,55.25
2018-08-04T02:07:41.852Z,54.18
2018-08-04T02:10:10.674Z,55.29
2018-08-04T02:12:40.053Z,55.33
2018-08-04T02:15:09.436Z,54.72
2018-08-04T02:17:39.246Z,55.31
2018-08-04T02:20:08.540Z,55.28
2018-08-04T02:22:37.793Z,55.72
2018-08-04T02:25:07.562Z,55.43
2018-08-04T02:27:36.592Z,55.81
2018-08-04T02:30:05.833Z,55.55
2018-08-04T02:32:35.117Z,55.51
2018-08-04T02:35:04.864Z,56.01
2018-08-04T02:37:34.209Z,56.18
2018-08-04T02:40:03.929Z,55.96
2018-08-04T02:42:33.050Z,57.38
2018-08-04T02:45:02.301Z,57.40
2018-08-04T02:47:31.497Z,56.92
2018-08-04T02:50:01.281Z,58.16
2018-08-04T02:52:30.500Z,58.35
2018-08-04T02:55:00.492Z,57.71
2018-08-04T02:57:29.942Z,58.78
2018-08-04T02:59:59.525Z,58.65
2018-08-04T03:02:28.812Z,58.32
2018-08-04T03:04:58.077Z,58.53
2018-08-04T03:07:27.356Z,59.26
2018-08-04T03:09:56.448Z,58.57
2018-08-04T03:12:26.746Z,59.04
2018-08-04T03:14:56.138Z,58.85
2018-08-04T03:17:25.427Z,59.13
2018-08-04T03:19:54.819Z,58.35
2018-08-04T03:22:24.146Z,59.39
2018-08-04T03:24:54.863Z,58.94
2018-08-04T03:27:24.064Z,59.87
2018-08-04T03:29:53.267Z,59.54
2018-08-04T03:32:22.505Z,59.18
2018-08-04T03:34:51.963Z,60.11
2018-08-04T03:37:22.143Z,59.88
2018-08-04T03:39:51.695Z,60.66
2018-08-04T03:42:22.240Z,60.99
2018-08-04T03:44:51.578Z,60.34
2018-08-04T03:47:21.293Z,61.40
2018-08-04T03:49:50.744Z,61.50
2018-08-04T03:52:20.261Z,60.96
2018-08-04T03:54:49.613Z,60.31
2018-08-04T03:57:19.100Z,60.77
2018-08-04T03:59:48.728Z,60.28
2018-08-04T04:02:18.101Z,60.83
2018-08-04T04:04:47.770Z,59.86
2018-08-04T04:07:17.421Z,60.43
2018-08-04T04:09:47.089Z,60.82
2018-08-04T04:12:16.484Z,60.20
2018-08-04T04:14:46.241Z,59.58
2018-08-04T04:17:15.681Z,60.70
2018-08-04T04:19:45.476Z,60.04
2018-08-04T04:22:15.035Z,60.14
2018-08-04T04:24:45.012Z,60.79
2018-08-04T04:27:14.572Z,60.95
2018-08-04T04:29:44.006Z,61.27
2018-08-04T04:32:13.487Z,60.66
2018-08-04T04:34:43.292Z,60.73
2018-08-04T04:37:13.063Z,61.09
2018-08-04T04:39:42.417Z,61.33
2018-08-04T04:42:11.784Z,60.68
2018-08-04T04:44:41.444Z,60.88
2018-08-04T04:47:10.732Z,61.34
2018-08-04T04:49:39.921Z,61.19
2018-08-04T04:52:09.335Z,61.06
2018-08-04T04:54:38.868Z,60.93
2018-08-04T04:57:08.362Z,61.29
2018-08-04T04:59:37.966Z,61.50
2018-08-04T05:02:07.814Z,61.29
2018-08-04T05:04:37.006Z,61.73
2018-08-04T05:07:09.440Z,61.96
2018-08-04T05:09:38.713Z,61.56
2018-08-04T05:12:08.214Z,61.58
2018-08-04T05:14:37.759Z,61.78
2018-08-04T05:17:07.133Z,61.62
2018-08-04T05:19:36.681Z,61.79
2018-08-04T05:22:06.006Z,62.03
2018-08-04T05:24:35.471Z,61.12
2018-08-04T05:27:05.180Z,61.16
2018-08-04T05:29:34.862Z,61.44
2018-08-04T05:32:04.224Z,61.43
2018-08-04T05:34:33.857Z,61.27
2018-08-04T05:37:03.385Z,60.46
2018-08-04T05:39:33.611Z,60.58
2018-08-04T05:42:03.063Z,60.09
2018-08-04T05:44:33.532Z,59.69
2018-08-04T05:47:03.593Z,60.14
2018-08-04T05:49:32.908Z,60.37
2018-08-04T05:52:02.440Z,60.03
2018-08-04T05:54:31.936Z,61.14
2018-08-04T05:57:01.402Z,61.13
2018-08-04T05:59:30.992Z,60.28
2018-08-04T06:02:00.390Z,60.09
2018-08-04T06:04:29.994Z,60.24
2018-08-04T06:06:59.323Z,59.67
2018-08-04T06:09:28.735Z,60.14
2018-08-04T06:11:58.729Z,59.90
2018-08-04T06:14:28.232Z,59.99
2018-08-04T06:16:57.605Z,60.46
2018-08-04T06:19:27.790Z,59.98
2018-08-04T06:22:03.647Z,59.58
2018-08-04T06:24:33.345Z,59.96
2018-08-04T06:27:03.695Z,60.02
2018-08-04T06:29:33.629Z,59.89
2018-08-04T06:32:03.114Z,59.77
2018-08-04T06:34:32.736Z,60.32
2018-08-04T06:37:02.621Z,59.78
2018-08-04T06:39:33.085Z,60.96
2018-08-04T06:42:02.687Z,60.73
2018-08-04T06:44:32.181Z,60.79
2018-08-04T06:47:01.711Z,60.20
2018-08-04T06:49:31.673Z,60.58
2018-08-04T06:52:00.948Z,60.61
2018-08-04T06:54:30.230Z,60.79
2018-08-04T06:56:59.612Z,59.92
2018-08-04T06:59:29.189Z,59.51
2018-08-04T07:01:58.649Z,59.62
2018-08-04T07:04:28.259Z,59.44
2018-08-04T07:06:57.613Z,58.89
2018-08-04T07:09:27.121Z,58.04
2018-08-04T07:11:56.874Z,58.78
2018-08-04T07:14:26.292Z,57.97
2018-08-04T07:16:56.467Z,58.99
2018-08-04T07:19:25.781Z,59.07
2018-08-04T07:21:55.445Z,58.50
2018-08-04T07:24:25.361Z,59.09
2018-08-04T07:26:54.834Z,58.52
2018-08-04T07:29:24.270Z,58.99
2018-08-04T07:31:54.484Z,58.93
2018-08-04T07:34:24.175Z,59.72
2018-08-04T07:36:53.660Z,59.65
2018-08-04T07:39:23.261Z,58.44
2018-08-04T07:41:52.922Z,58.41
2018-08-04T07:44:22.407Z,58.61
2018-08-04T07:46:51.703Z,58.45
2018-08-04T07:49:21.333Z,58.32
2018-08-04T07:51:50.786Z,57.81
2018-08-04T07:54:20.269Z,57.85
2018-08-04T07:56:49.867Z,57.88
2018-08-04T07:59:19.358Z,57.17
2018-08-04T08:01:49.412Z,56.92
2018-08-04T08:04:24.435Z,57.15
2018-08-04T08:06:55.300Z,56.87
2018-08-04T08:09:24.655Z,56.09
2018-08-04T08:11:58.460Z,55.27
2018-08-04T08:14:28.417Z,55.08
2018-08-04T08:17:02.159Z,53.92
2018-08-04T08:19:31.672Z,53.85
2018-08-04T08:22:01.621Z,53.48
2018-08-04T08:24:31.747Z,52.63
2018-08-04T08:27:02.387Z,52.87
2018-08-04T08:29:36.706Z,53.14
2018-08-04T08:32:06.395Z,51.88
2018-08-04T08:34:35.943Z,51.76
2018-08-04T08:37:05.377Z,51.61
2018-08-04T08:39:34.934Z,51.41
2018-08-04T08:42:04.752Z,50.75
2018-08-04T08:44:34.168Z,50.40
2018-08-04T08:47:03.833Z,49.86
2018-08-04T08:49:33.381Z,49.65
2018-08-04T08:52:02.952Z,48.78
2018-08-04T08:54:32.329Z,48.47
2018-08-04T08:57:02.156Z,48.41
2018-08-04T08:59:31.553Z,47.91
2018-08-04T09:02:00.829Z,47.73
2018-08-04T09:04:30.540Z,47.71
2018-08-04T09:07:00.695Z,47.82
2018-08-04T09:09:30.070Z,47.87
2018-08-04T09:12:01.456Z,46.78
2018-08-04T09:14:31.142Z,46.76
2018-08-04T09:17:00.975Z,46.10
2018-08-04T09:19:30.394Z,45.55
2018-08-04T09:22:00.096Z,44.91
2018-08-04T09:24:29.818Z,44.78
2018-08-04T09:26:59.952Z,45.81
2018-08-04T09:29:29.360Z,44.46
2018-08-04T09:31:58.984Z,44.07
2018-08-04T09:34:28.926Z,44.14
2018-08-04T09:36:58.709Z,43.70
2018-08-04T09:39:28.069Z,43.83
2018-08-04T09:41:57.712Z,44.63
2018-08-04T09:44:27.043Z,42.56
2018-08-04T09:46:56.545Z,43.24
2018-08-04T09:49:26.053Z,42.56
2018-08-04T09:51:55.530Z,43.13
2018-08-04T09:54:25.072Z,42.73
2018-08-04T09:56:54.582Z,41.92
2018-08-04T09:59:23.911Z,41.61
2018-08-04T10:01:57.750Z,41.91
2018-08-04T10:04:27.302Z,41.79
2018-08-04T10:06:56.886Z,40.62
2018-08-04T10:09:26.440Z,40.46
2018-08-04T10:11:55.865Z,40.16
2018-08-04T10:14:25.685Z,38.64
2018-08-04T10:16:59.389Z,38.64
2018-08-04T10:19:29.130Z,39.30
2018-08-04T10:21:58.990Z,37.74
2018-08-04T10:24:28.589Z,37.58
2018-08-04T10:26:58.003Z,37.68
2018-08-04T10:29:28.108Z,36.90
2018-08-04T10:31:57.617Z,38.27
2018-08-04T10:34:31.897Z,37.16
2018-08-04T10:37:01.786Z,36.70
2018-08-04T10:39:31.853Z,37.22
2018-08-04T10:42:01.542Z,37.10
2018-08-04T10:44:31.333Z,36.95
2018-08-04T10:47:00.981Z,37.69
2018-08-04T10:49:30.710Z,36.67
2018-08-04T10:52:00.075Z,36.74
2018-08-04T10:54:29.391Z,37.45
2018-08-04T10:56:58.907Z,36.23
2018-08-04T10:59:28.240Z,35.94
2018-08-04T11:01:57.670Z,36.69
2018-08-04T11:04:27.451Z,36.27
2018-08-04T11:06:57.448Z,36.53
2018-08-04T11:09:27.043Z,36.33
2018-08-04T11:11:56.525Z,36.78
2018-08-04T11:14:26.022Z,35.19
2018-08-04T11:16:55.815Z,36.30
2018-08-04T11:19:25.423Z,34.18
2018-08-04T11:21:54.833Z,34.24
2018-08-04T11:24:24.071Z,35.08
2018-08-04T11:26:53.624Z,34.46
2018-08-04T11:29:23.163Z,34.91
2018-08-04T11:31:53.130Z,34.71
2018-08-04T11:34:22.712Z,33.88
2018-08-04T11:36:52.333Z,34.03
2018-08-04T11:39:22.047Z,33.32
2018-08-04T11:41:52.332Z,33.82
2018-08-04T11:44:22.398Z,34.54
2018-08-04T11:46:51.890Z,33.58
2018-08-04T11:49:21.757Z,33.58
2018-08-04T11:51:51.144Z,33.29
2018-08-04T11:54:20.967Z,33.98
2018-08-04T11:56:50.642Z,33.87
2018-08-04T11:59:20.128Z,34.32
2018-08-04T12:01:49.901Z,32.50
2018-08-04T12:04:19.526Z,33.36
2018-08-04T12:06:49.399Z,31.87
2018-08-04T12:09:19.204Z,30.66
2018-08-04T12:11:48.609Z,31.18
2018-08-04T12:14:18.185Z,30.87
2018-08-04T12:16:47.733Z,31.80
2018-08-04T12:19:17.017Z,31.04
2018-08-04T12:21:46.343Z,31.49
2018-08-04T12:24:15.752Z,30.66
2018-08-04T12:26:45.372Z,30.58
2018-08-04T12:29:14.794Z,28.77
2018-08-04T12:31:45.140Z,26.99
2018-08-04T12:34:14.367Z,26.20
2018-08-04T12:36:44.222Z,27.11
2018-08-04T12:39:13.807Z,28.02
2018-08-04T12:41:43.072Z,29.35
2018-08-04T12:44:12.677Z,28.92
2018-08-04T12:46:42.227Z,27.99
2018-08-04T12:49:11.760Z,27.33
2018-08-04T12:51:42.211Z,27.58
2018-08-04T12:54:11.868Z,27.44
2018-08-04T12:56:41.268Z,27.73
2018-08-04T12:59:10.896Z,28.98
2018-08-04T13:01:40.461Z,28.59
2018-08-04T13:04:09.806Z,29.14
2018-08-04T13:06:39.312Z,29.20
2018-08-04T13:09:10.832Z,29.22
2018-08-04T13:11:40.291Z,29.67
2018-08-04T13:14:10.298Z,30.16
2018-08-04T13:16:40.050Z,30.52
2018-08-04T13:19:09.413Z,30.55
2018-08-04T13:21:38.746Z,31.66
2018-08-04T13:24:08.722Z,31.70
2018-08-04T13:26:38.862Z,31.29
2018-08-04T13:29:08.226Z,30.91
2018-08-04T13:31:37.770Z,31.39
2018-08-04T13:34:07.110Z,32.21
2018-08-04T13:36:36.669Z,31.22
2018-08-04T13:39:08.951Z,32.06
2018-08-04T13:41:39.130Z,31.80
2018-08-04T13:44:08.721Z,31.12
2018-08-04T13:46:38.566Z,31.99
2018-08-04T13:49:08.110Z,32.13
2018-08-04T13:51:37.907Z,31.48
2018-08-04T13:54:07.691Z,31.07
2018-08-04T13:56:37.059Z,30.50
2018-08-04T13:59:07.553Z,30.68
2018-08-04T14:01:36.987Z,31.90
2018-08-04T14:04:06.624Z,31.62
2018-08-04T14:06:36.037Z,32.09
2018-08-04T14:09:06.813Z,31.02
2018-08-04T14:11:36.370Z,31.24
2018-08-04T14:14:06.226Z,31.67
2018-08-04T14:16:35.625Z,31.68
2018-08-04T14:19:05.173Z,31.04
2018-08-04T14:21:34.809Z,31.12
2018-08-04T14:24:04.390Z,30.67
2018-08-04T14:26:33.880Z,32.04
2018-08-04T14:29:03.286Z,31.08
2018-08-04T14:31:32.825Z,31.53
2018-08-04T14:34:02.432Z,31.88
2018-08-04T14:36:32.076Z,31.75
2018-08-04T14:39:01.654Z,30.87
2018-08-04T14:41:31.207Z,31.23
2018-08-04T14:44:04.912Z,32.10
2018-08-04T14:46:36.358Z,32.04
2018-08-04T14:49:05.789Z,31.45
2018-08-04T14:51:35.148Z,31.39
2018-08-04T14:54:04.773Z,32.33
2018-08-04T14:56:34.403Z,32.98
2018-08-04T14:59:04.145Z,33.22
2018-08-04T15:01:33.559Z,32.90
2018-08-04T15:04:03.082Z,32.60
2018-08-04T15:06:32.668Z,33.58
2018-08-04T15:09:02.197Z,33.00
2018-08-04T15:11:31.625Z,33.17
2018-08-04T15:14:01.204Z,32.63
2018-08-04T15:16:30.898Z,33.19
2018-08-04T15:19:00.487Z,33.00
2018-08-04T15:21:29.825Z,33.14
2018-08-04T15:23:59.352Z,33.81
2018-08-04T15:26:28.702Z,33.61
2018-08-04T15:28:58.187Z,34.01
2018-08-04T15:31:27.428Z,34.34
2018-08-04T15:33:56.898Z,34.07
2018-08-04T15:36:26.234Z,33.84
2018-08-04T15:38:55.471Z,33.84
2018-08-04T15:41:25.076Z,33.95
2018-08-04T15:43:54.928Z,33.85
2018-08-04T15:46:25.647Z,33.74
2018-08-04T15:48:55.158Z,34.11
2018-08-04T15:51:24.560Z,34.52
2018-08-04T15:53:54.961Z,34.13
2018-08-04T15:56:24.582Z,33.07
2018-08-04T15:58:54.083Z,32.94
2018-08-04T16:01:23.663Z,33.28
2018-08-04T16:03:53.261Z,34.17
2018-08-04T16:06:22.959Z,33.43
2018-08-04T16:08:52.424Z,33.79
2018-08-04T16:11:22.112Z,33.76
2018-08-04T16:13:51.992Z,33.41
2018-08-04T16:16:21.613Z,33.75
2018-08-04T16:18:51.404Z,32.85
2018-08-04T16:21:21.246Z,33.60
2018-08-04T16:23:50.975Z,33.79
2018-08-04T16:26:20.787Z,34.34
2018-08-04T16:28:51.305Z,33.97
2018-08-04T16:31:21.068Z,34.41
2018-08-04T16:33:50.450Z,34.42
2018-08-04T16:36:20.356Z,35.30
2018-08-04T16:38:49.872Z,35.67
2018-08-04T16:41:19.109Z,35.67
2018-08-04T16:43:48.588Z,36.22
2018-08-04T16:46:18.353Z,36.27
2018-08-04T16:48:48.026Z,36.42
2018-08-04T16:51:17.498Z,35.79
2018-08-04T16:53:47.049Z,35.76
2018-08-04T16:56:17.111Z,36.42
2018-08-04T16:58:46.448Z,36.51
2018-08-04T17:01:16.772Z,37.23
2018-08-04T17:03:46.028Z,36.83
2018-08-04T17:06:15.544Z,37.40
2018-08-04T17:08:44.936Z,38.52
2018-08-04T17:11:14.325Z,38.95
2018-08-04T17:13:43.669Z,39.37
2018-08-04T17:16:13.087Z,38.84
2018-08-04T17:18:42.728Z,40.20
2018-08-04T17:21:12.328Z,40.09
2018-08-04T17:23:41.653Z,40.21
2018-08-04T17:26:10.993Z,41.12
2018-08-04T17:28:40.594Z,41.32
2018-08-04T17:31:09.970Z,41.51
2018-08-04T17:33:39.684Z,41.66
2018-08-04T17:36:09.364Z,42.04
2018-08-04T17:38:38.811Z,43.03
2018-08-04T17:41:08.298Z,42.36
2018-08-04T17:43:37.840Z,42.94
2018-08-04T17:46:07.477Z,42.32
2018-08-04T17:48:36.925Z,43.24
2018-08-04T17:51:06.597Z,43.07
2018-08-04T17:53:36.271Z,43.07
2018-08-04T17:56:06.940Z,44.48
2018-08-04T17:58:36.561Z,43.93
2018-08-04T18:01:06.152Z,44.09
2018-08-04T18:03:35.517Z,45.28
2018-08-04T18:06:05.525Z,44.02
2018-08-04T18:08:34.994Z,44.18
2018-08-04T18:11:04.780Z,44.26
2018-08-04T18:13:34.408Z,44.15
2018-08-04T18:16:03.739Z,44.67
2018-08-04T18:18:33.535Z,45.04
2018-08-04T18:21:03.090Z,44.49
2018-08-04T18:23:32.386Z,45.03
2018-08-04T18:26:05.067Z,45.86
2018-08-04T18:28:34.672Z,45.96
2018-08-04T18:31:04.410Z,45.61
2018-08-04T18:33:34.041Z,46.49
2018-08-04T18:36:03.494Z,46.78
2018-08-04T18:38:33.097Z,46.36
2018-08-04T18:41:02.504Z,45.75
2018-08-04T18:43:32.248Z,47.13
2018-08-04T18:46:01.706Z,46.96
2018-08-04T18:48:31.369Z,47.27
2018-08-04T18:51:01.755Z,46.43
2018-08-04T18:53:31.237Z,46.86
2018-08-04T18:56:00.730Z,48.14
2018-08-04T18:58:30.294Z,47.00
2018-08-04T19:00:59.866Z,47.17
2018-08-04T19:03:29.887Z,48.26
2018-08-04T19:06:00.119Z,48.36
2018-08-04T19:08:30.035Z,48.29
2018-08-04T19:10:59.947Z,48.53
2018-08-04T19:13:29.607Z,48.33
2018-08-04T19:15:59.243Z,49.06
2018-08-04T19:18:28.580Z,48.83
2018-08-04T19:20:59.222Z,48.68
2018-08-04T19:23:28.902Z,48.68
2018-08-04T19:25:59.232Z,49.50
2018-08-04T19:28:33.338Z,49.50
2018-08-04T19:31:05.252Z,49.60
2018-08-04T19:33:46.062Z,50.06
2018-08-04T19:36:17.390Z,50.69
2018-08-04T19:38:48.028Z,51.31
2018-08-04T19:41:17.485Z,52.00
2018-08-04T19:43:49.040Z,51.39
2018-08-04T19:46:27.377Z,51.33
2018-08-04T19:49:04.265Z,51.25
2018-08-04T19:51:40.321Z,51.20
2018-08-04T19:54:09.944Z,51.17
2018-08-04T19:56:45.002Z,52.26
2018-08-04T19:59:14.687Z,52.08
2018-08-04T20:01:44.602Z,51.96
2018-08-04T20:04:14.304Z,52.85
2018-08-04T20:06:43.541Z,53.26
2018-08-04T20:09:13.115Z,53.23
2018-08-04T20:11:42.527Z,52.73
2018-08-04T20:14:13.288Z,53.52
2018-08-04T20:16:44.727Z,53.23
2018-08-04T20:19:14.430Z,54.50
2018-08-04T20:21:55.044Z,54.68
2018-08-04T20:24:24.377Z,54.95
2018-08-04T20:26:55.468Z,55.02
2018-08-04T20:29:31.839Z,55.38
2018-08-04T20:32:01.438Z,54.69
2018-08-04T20:34:34.057Z,54.77
2018-08-04T20:37:03.377Z,55.88
2018-08-04T20:39:44.904Z,55.16
2018-08-04T20:42:14.702Z,55.90
2018-08-04T20:44:47.031Z,56.28
2018-08-04T20:47:17.924Z,56.31
2018-08-04T20:49:47.271Z,57.09
2018-08-04T20:52:16.680Z,56.26
2018-08-04T20:54:45.991Z,56.79
2018-08-04T20:57:17.257Z,56.47
2018-08-04T20:59:46.596Z,57.40
2018-08-04T21:02:15.891Z,57.14
2018-08-04T21:04:45.125Z,56.75
2018-08-04T21:07:14.427Z,57.83
2018-08-04T21:09:46.679Z,58.44
2018-08-04T21:12:16.511Z,58.62
2018-08-04T21:14:46.259Z,58.46
2018-08-04T21:17:15.719Z,59.33
2018-08-04T21:19:45.314Z,59.47
2018-08-04T21:22:14.687Z,59.81
2018-08-04T21:24:44.737Z,60.58
2018-08-04T21:27:14.839Z,60.42
2018-08-04T21:29:44.159Z,60.19
2018-08-04T21:32:13.323Z,59.69
2018-08-04T21:34:43.777Z,60.90
2018-08-04T21:37:17.504Z,61.10
2018-08-04T21:39:46.769Z,60.46
2018-08-04T21:42:16.193Z,60.68
2018-08-04T21:44:45.799Z,60.92
2018-08-04T21:47:15.074Z,60.42
2018-08-04T21:49:44.911Z,61.39
2018-08-04T21:52:14.472Z,60.42
2018-08-04T21:54:43.897Z,60.81
2018-08-04T21:57:13.694Z,61.38
2018-08-04T21:59:43.260Z,61.46
2018-08-04T22:02:12.778Z,62.04
2018-08-04T22:04:42.306Z,63.20
2018-08-04T22:07:48.894Z,62.76
2018-08-04T22:10:18.163Z,63.41
2018-08-04T22:12:47.975Z,63.26
2018-08-04T22:15:17.466Z,63.82
2018-08-04T22:17:46.657Z,64.75
2018-08-04T22:20:17.119Z,64.86
2018-08-04T22:22:46.392Z,64.29
2018-08-04T22:25:17.031Z,64.49
2018-08-04T22:27:46.187Z,65.25
2018-08-04T22:30:17.557Z,65.50
2018-08-04T22:32:47.291Z,65.89
2018-08-04T22:35:16.784Z,65.82
2018-08-04T22:37:46.633Z,65.57
2018-08-04T22:40:16.726Z,65.45
2018-08-04T22:42:46.079Z,66.07
2018-08-04T22:46:24.794Z,65.44
2018-08-04T22:48:54.892Z,66.02
2018-08-04T22:51:26.416Z,65.64
2018-08-04T22:53:55.581Z,66.51
2018-08-04T22:56:26.061Z,67.23
2018-08-04T22:58:55.341Z,67.35
2018-08-04T23:01:24.581Z,67.08
2018-08-04T23:03:53.874Z,66.68
2018-08-04T23:06:23.088Z,67.52
2018-08-04T23:08:52.392Z,67.05
2018-08-04T23:11:22.928Z,67.10
2018-08-04T23:13:52.022Z,67.87
2018-08-04T23:16:21.291Z,67.84
2018-08-04T23:18:54.279Z,67.71
2018-08-04T23:21:23.575Z,67.78
2018-08-04T23:23:52.965Z,67.15
2018-08-04T23:26:22.297Z,67.84
2018-08-04T23:28:51.460Z,69.04
2018-08-04T23:31:21.715Z,68.48
2018-08-04T23:33:50.857Z,69.12
2018-08-04T23:36:20.201Z,68.92
2018-08-04T23:38:49.440Z,68.45
2018-08-04T23:41:18.562Z,68.46
2018-08-04T23:43:47.882Z,69.13
2018-08-04T23:46:17.499Z,68.17
2018-08-04T23:48:46.737Z,68.23
2018-08-04T23:51:15.914Z,68.13
2018-08-04T23:53:45.276Z,68.18
2018-08-04T23:56:15.079Z,68.98
2018-08-04T23:58:44.505Z,69.30
